sensor_id;sensor_type;location;lat;lon;timestamp;P1;durP1;ratioP1;P2;durP2;ratioP2
11185;SDS011;5649;52.422;13.754;2022-12-10T00:00:51;17.63;;;7.90;;
11185;SDS011;5649;52.422;13.754;2022-12-10T00:03:17;12.33;;;7.27;;
11185;SDS011;5649;52.422;13.754;2022-12-10T00:08:11;19.20;;;7.40;;
11185;SDS011;5649;52.422;13.754;2022-12-10T00:10:41;18.33;;;8.20;;
11185;SDS011;5649;52.422;13.754;2022-12-10T00:13:07;13.40;;;6.67;;
11185;SDS011;5649;52.422;13.754;2022-12-10T00:15:36;15.83;;;6.87;;
11185;SDS011;5649;52.422;13.754;2022-12-10T00:18:02;13.60;;;7.03;;
11185;SDS011;5649;52.422;13.754;2022-12-10T00:20:28;18.37;;;8.17;;
11185;SDS011;5649;52.422;13.754;2022-12-10T00:22:54;19.07;;;8.00;;
11185;SDS011;5649;52.422;13.754;2022-12-10T00:25:20;18.13;;;7.57;;
11185;SDS011;5649;52.422;13.754;2022-12-10T00:27:46;16.57;;;6.90;;
11185;SDS011;5649;52.422;13.754;2022-12-10T00:30:12;14.77;;;7.50;;
11185;SDS011;5649;52.422;13.754;2022-12-10T00:32:38;18.10;;;7.87;;
11185;SDS011;5649;52.422;13.754;2022-12-10T00:35:04;15.77;;;7.93;;
11185;SDS011;5649;52.422;13.754;2022-12-10T00:37:30;23.53;;;6.87;;
11185;SDS011;5649;52.422;13.754;2022-12-10T00:39:56;12.13;;;6.77;;
11185;SDS011;5649;52.422;13.754;2022-12-10T00:42:22;12.83;;;6.93;;
11185;SDS011;5649;52.422;13.754;2022-12-10T00:44:48;22.10;;;7.60;;
11185;SDS011;5649;52.422;13.754;2022-12-10T00:47:14;18.73;;;9.10;;
11185;SDS011;5649;52.422;13.754;2022-12-10T00:49:40;13.07;;;6.63;;
11185;SDS011;5649;52.422;13.754;2022-12-10T00:52:06;19.33;;;7.63;;
11185;SDS011;5649;52.422;13.754;2022-12-10T00:54:32;17.83;;;6.23;;
11185;SDS011;5649;52.422;13.754;2022-12-10T00:56:58;10.80;;;6.10;;
11185;SDS011;5649;52.422;13.754;2022-12-10T00:59:24;25.13;;;7.43;;
11185;SDS011;5649;52.422;13.754;2022-12-10T01:01:50;13.30;;;6.97;;
11185;SDS011;5649;52.422;13.754;2022-12-10T01:04:16;11.83;;;7.70;;
11185;SDS011;5649;52.422;13.754;2022-12-10T01:06:50;21.73;;;7.00;;
11185;SDS011;5649;52.422;13.754;2022-12-10T01:09:17;13.43;;;7.20;;
11185;SDS011;5649;52.422;13.754;2022-12-10T01:11:45;12.37;;;6.80;;
11185;SDS011;5649;52.422;13.754;2022-12-10T01:14:12;15.10;;;7.33;;
11185;SDS011;5649;52.422;13.754;2022-12-10T01:16:39;15.10;;;7.03;;
11185;SDS011;5649;52.422;13.754;2022-12-10T01:19:06;15.20;;;7.03;;
11185;SDS011;5649;52.422;13.754;2022-12-10T01:21:32;13.90;;;7.70;;
11185;SDS011;5649;52.422;13.754;2022-12-10T01:23:58;15.67;;;7.50;;
11185;SDS011;5649;52.422;13.754;2022-12-10T01:26:28;15.90;;;8.10;;
11185;SDS011;5649;52.422;13.754;2022-12-10T01:28:54;19.40;;;8.43;;
11185;SDS011;5649;52.422;13.754;2022-12-10T01:31:25;20.07;;;8.33;;
11185;SDS011;5649;52.422;13.754;2022-12-10T01:33:51;14.53;;;7.10;;
11185;SDS011;5649;52.422;13.754;2022-12-10T01:36:19;16.87;;;8.80;;
11185;SDS011;5649;52.422;13.754;2022-12-10T01:38:45;16.50;;;7.77;;
11185;SDS011;5649;52.422;13.754;2022-12-10T01:41:45;20.00;;;6.80;;
11185;SDS011;5649;52.422;13.754;2022-12-10T01:46:40;17.13;;;8.40;;
11185;SDS011;5649;52.422;13.754;2022-12-10T01:49:07;16.97;;;7.20;;
11185;SDS011;5649;52.422;13.754;2022-12-10T01:51:35;16.40;;;7.50;;
11185;SDS011;5649;52.422;13.754;2022-12-10T01:54:06;17.20;;;8.10;;
11185;SDS011;5649;52.422;13.754;2022-12-10T01:56:35;13.20;;;7.23;;
11185;SDS011;5649;52.422;13.754;2022-12-10T01:59:02;20.80;;;8.30;;
11185;SDS011;5649;52.422;13.754;2022-12-10T02:04:01;21.70;;;8.90;;
11185;SDS011;5649;52.422;13.754;2022-12-10T02:06:32;21.47;;;10.00;;
11185;SDS011;5649;52.422;13.754;2022-12-10T02:19:31;27.60;;;9.10;;
11185;SDS011;5649;52.422;13.754;2022-12-10T02:22:00;16.90;;;8.43;;
11185;SDS011;5649;52.422;13.754;2022-12-10T02:24:28;12.97;;;7.23;;
11185;SDS011;5649;52.422;13.754;2022-12-10T02:27:00;18.63;;;7.43;;
11185;SDS011;5649;52.422;13.754;2022-12-10T02:29:28;22.10;;;7.90;;
11185;SDS011;5649;52.422;13.754;2022-12-10T02:34:28;22.37;;;8.30;;
11185;SDS011;5649;52.422;13.754;2022-12-10T02:36:55;17.50;;;8.40;;
11185;SDS011;5649;52.422;13.754;2022-12-10T02:39:25;22.43;;;7.67;;
11185;SDS011;5649;52.422;13.754;2022-12-10T02:41:53;14.83;;;7.97;;
11185;SDS011;5649;52.422;13.754;2022-12-10T02:44:19;21.23;;;8.53;;
11185;SDS011;5649;52.422;13.754;2022-12-10T02:46:47;16.07;;;7.57;;
11185;SDS011;5649;52.422;13.754;2022-12-10T02:49:14;19.73;;;8.57;;
11185;SDS011;5649;52.422;13.754;2022-12-10T02:51:41;15.37;;;7.23;;
11185;SDS011;5649;52.422;13.754;2022-12-10T02:54:33;21.23;;;8.60;;
11185;SDS011;5649;52.422;13.754;2022-12-10T02:56:58;12.73;;;7.30;;
11185;SDS011;5649;52.422;13.754;2022-12-10T02:59:33;18.53;;;8.30;;
11185;SDS011;5649;52.422;13.754;2022-12-10T03:02:09;26.47;;;7.73;;
11185;SDS011;5649;52.422;13.754;2022-12-10T03:04:43;25.70;;;9.07;;
11185;SDS011;5649;52.422;13.754;2022-12-10T03:07:14;21.33;;;8.07;;
11185;SDS011;5649;52.422;13.754;2022-12-10T03:09:45;21.13;;;10.80;;
11185;SDS011;5649;52.422;13.754;2022-12-10T03:12:18;16.87;;;8.57;;
11185;SDS011;5649;52.422;13.754;2022-12-10T03:14:45;16.63;;;8.00;;
11185;SDS011;5649;52.422;13.754;2022-12-10T03:17:11;15.63;;;7.47;;
11185;SDS011;5649;52.422;13.754;2022-12-10T03:19:42;21.93;;;8.40;;
11185;SDS011;5649;52.422;13.754;2022-12-10T03:22:10;14.57;;;7.87;;
11185;SDS011;5649;52.422;13.754;2022-12-10T03:24:37;25.20;;;8.93;;
11185;SDS011;5649;52.422;13.754;2022-12-10T03:27:05;25.97;;;9.63;;
11185;SDS011;5649;52.422;13.754;2022-12-10T03:29:36;17.40;;;7.80;;
11185;SDS011;5649;52.422;13.754;2022-12-10T03:32:03;17.60;;;9.33;;
11185;SDS011;5649;52.422;13.754;2022-12-10T03:34:30;21.13;;;7.30;;
11185;SDS011;5649;52.422;13.754;2022-12-10T03:36:56;15.30;;;7.67;;
11185;SDS011;5649;52.422;13.754;2022-12-10T03:39:23;23.07;;;8.40;;
11185;SDS011;5649;52.422;13.754;2022-12-10T03:41:49;16.03;;;8.10;;
11185;SDS011;5649;52.422;13.754;2022-12-10T03:44:26;17.10;;;8.40;;
11185;SDS011;5649;52.422;13.754;2022-12-10T03:46:52;22.30;;;10.00;;
11185;SDS011;5649;52.422;13.754;2022-12-10T03:49:18;29.20;;;9.70;;
11185;SDS011;5649;52.422;13.754;2022-12-10T03:51:44;19.40;;;8.17;;
11185;SDS011;5649;52.422;13.754;2022-12-10T03:54:10;20.50;;;8.83;;
11185;SDS011;5649;52.422;13.754;2022-12-10T03:56:36;16.70;;;9.23;;
11185;SDS011;5649;52.422;13.754;2022-12-10T03:59:02;14.40;;;7.77;;
11185;SDS011;5649;52.422;13.754;2022-12-10T04:01:28;17.40;;;8.57;;
11185;SDS011;5649;52.422;13.754;2022-12-10T04:03:55;15.93;;;7.40;;
11185;SDS011;5649;52.422;13.754;2022-12-10T04:06:21;15.70;;;7.73;;
11185;SDS011;5649;52.422;13.754;2022-12-10T04:08:47;21.20;;;9.27;;
11185;SDS011;5649;52.422;13.754;2022-12-10T04:11:14;16.00;;;8.20;;
11185;SDS011;5649;52.422;13.754;2022-12-10T04:13:41;20.93;;;7.57;;
11185;SDS011;5649;52.422;13.754;2022-12-10T04:16:25;23.83;;;8.20;;
11185;SDS011;5649;52.422;13.754;2022-12-10T04:18:52;19.90;;;9.30;;
11185;SDS011;5649;52.422;13.754;2022-12-10T04:21:18;19.60;;;8.13;;
11185;SDS011;5649;52.422;13.754;2022-12-10T04:24:03;14.20;;;7.70;;
11185;SDS011;5649;52.422;13.754;2022-12-10T04:26:47;15.83;;;8.17;;
11185;SDS011;5649;52.422;13.754;2022-12-10T04:29:17;16.97;;;8.33;;
11185;SDS011;5649;52.422;13.754;2022-12-10T04:31:43;11.07;;;7.23;;
11185;SDS011;5649;52.422;13.754;2022-12-10T04:34:09;16.27;;;6.90;;
11185;SDS011;5649;52.422;13.754;2022-12-10T04:36:35;15.10;;;6.97;;
11185;SDS011;5649;52.422;13.754;2022-12-10T04:39:01;12.90;;;6.40;;
11185;SDS011;5649;52.422;13.754;2022-12-10T04:41:27;16.67;;;7.27;;
11185;SDS011;5649;52.422;13.754;2022-12-10T04:43:53;15.13;;;7.73;;
11185;SDS011;5649;52.422;13.754;2022-12-10T04:46:19;15.83;;;7.53;;
11185;SDS011;5649;52.422;13.754;2022-12-10T04:48:45;14.83;;;7.07;;
11185;SDS011;5649;52.422;13.754;2022-12-10T04:51:11;10.80;;;6.00;;
11185;SDS011;5649;52.422;13.754;2022-12-10T04:53:37;13.23;;;6.63;;
11185;SDS011;5649;52.422;13.754;2022-12-10T04:56:03;15.03;;;6.03;;
11185;SDS011;5649;52.422;13.754;2022-12-10T04:58:31;16.03;;;8.10;;
11185;SDS011;5649;52.422;13.754;2022-12-10T05:01:03;14.80;;;7.20;;
11185;SDS011;5649;52.422;13.754;2022-12-10T05:03:30;15.83;;;6.87;;
11185;SDS011;5649;52.422;13.754;2022-12-10T05:05:59;12.83;;;6.40;;
11185;SDS011;5649;52.422;13.754;2022-12-10T05:08:25;14.23;;;6.63;;
11185;SDS011;5649;52.422;13.754;2022-12-10T05:10:51;16.00;;;6.50;;
11185;SDS011;5649;52.422;13.754;2022-12-10T05:13:17;15.67;;;7.73;;
11185;SDS011;5649;52.422;13.754;2022-12-10T05:15:43;12.90;;;6.47;;
11185;SDS011;5649;52.422;13.754;2022-12-10T05:18:09;20.93;;;6.80;;
11185;SDS011;5649;52.422;13.754;2022-12-10T05:20:36;11.30;;;7.10;;
11185;SDS011;5649;52.422;13.754;2022-12-10T05:23:02;13.73;;;7.10;;
11185;SDS011;5649;52.422;13.754;2022-12-10T05:25:46;14.20;;;7.20;;
11185;SDS011;5649;52.422;13.754;2022-12-10T05:28:19;9.13;;;5.80;;
11185;SDS011;5649;52.422;13.754;2022-12-10T05:30:45;12.90;;;6.10;;
11185;SDS011;5649;52.422;13.754;2022-12-10T05:33:11;17.57;;;6.77;;
11185;SDS011;5649;52.422;13.754;2022-12-10T05:35:37;10.60;;;6.23;;
11185;SDS011;5649;52.422;13.754;2022-12-10T05:38:03;14.00;;;6.80;;
11185;SDS011;5649;52.422;13.754;2022-12-10T05:40:30;17.03;;;7.50;;
11185;SDS011;5649;52.422;13.754;2022-12-10T05:42:56;14.47;;;6.53;;
11185;SDS011;5649;52.422;13.754;2022-12-10T05:45:22;12.10;;;6.43;;
11185;SDS011;5649;52.422;13.754;2022-12-10T05:47:49;14.43;;;6.10;;
11185;SDS011;5649;52.422;13.754;2022-12-10T05:50:15;12.40;;;6.90;;
11185;SDS011;5649;52.422;13.754;2022-12-10T05:52:43;15.43;;;7.40;;
11185;SDS011;5649;52.422;13.754;2022-12-10T05:55:09;11.30;;;5.83;;
11185;SDS011;5649;52.422;13.754;2022-12-10T05:57:36;15.03;;;6.60;;
11185;SDS011;5649;52.422;13.754;2022-12-10T06:00:05;14.90;;;6.10;;
11185;SDS011;5649;52.422;13.754;2022-12-10T06:02:34;18.03;;;7.50;;
11185;SDS011;5649;52.422;13.754;2022-12-10T06:05:00;14.30;;;6.83;;
11185;SDS011;5649;52.422;13.754;2022-12-10T06:07:26;13.40;;;6.87;;
11185;SDS011;5649;52.422;13.754;2022-12-10T06:09:52;13.67;;;7.20;;
11185;SDS011;5649;52.422;13.754;2022-12-10T06:12:18;12.57;;;7.17;;
11185;SDS011;5649;52.422;13.754;2022-12-10T06:14:44;15.93;;;7.70;;
11185;SDS011;5649;52.422;13.754;2022-12-10T06:17:11;17.23;;;6.90;;
11185;SDS011;5649;52.422;13.754;2022-12-10T06:19:37;12.23;;;7.07;;
11185;SDS011;5649;52.422;13.754;2022-12-10T06:22:03;13.43;;;7.03;;
11185;SDS011;5649;52.422;13.754;2022-12-10T06:24:29;12.20;;;7.07;;
11185;SDS011;5649;52.422;13.754;2022-12-10T06:26:55;17.77;;;7.40;;
11185;SDS011;5649;52.422;13.754;2022-12-10T06:29:22;13.73;;;6.97;;
11185;SDS011;5649;52.422;13.754;2022-12-10T06:31:48;14.20;;;7.30;;
11185;SDS011;5649;52.422;13.754;2022-12-10T06:34:14;16.10;;;7.40;;
11185;SDS011;5649;52.422;13.754;2022-12-10T06:36:40;13.40;;;7.40;;
11185;SDS011;5649;52.422;13.754;2022-12-10T06:39:06;17.30;;;7.30;;
11185;SDS011;5649;52.422;13.754;2022-12-10T06:41:32;15.43;;;7.37;;
11185;SDS011;5649;52.422;13.754;2022-12-10T06:43:58;18.87;;;7.13;;
11185;SDS011;5649;52.422;13.754;2022-12-10T06:46:25;11.60;;;6.43;;
11185;SDS011;5649;52.422;13.754;2022-12-10T06:48:52;13.00;;;6.53;;
11185;SDS011;5649;52.422;13.754;2022-12-10T06:51:18;15.37;;;7.43;;
11185;SDS011;5649;52.422;13.754;2022-12-10T06:53:44;9.93;;;6.17;;
11185;SDS011;5649;52.422;13.754;2022-12-10T06:56:15;12.90;;;6.93;;
11185;SDS011;5649;52.422;13.754;2022-12-10T06:58:41;17.93;;;6.87;;
11185;SDS011;5649;52.422;13.754;2022-12-10T07:01:12;14.37;;;7.40;;
11185;SDS011;5649;52.422;13.754;2022-12-10T07:03:39;12.07;;;8.00;;
11185;SDS011;5649;52.422;13.754;2022-12-10T07:06:05;13.57;;;6.43;;
11185;SDS011;5649;52.422;13.754;2022-12-10T07:08:32;15.00;;;6.90;;
11185;SDS011;5649;52.422;13.754;2022-12-10T07:10:58;17.47;;;8.37;;
11185;SDS011;5649;52.422;13.754;2022-12-10T07:13:24;14.93;;;6.93;;
11185;SDS011;5649;52.422;13.754;2022-12-10T07:15:50;10.13;;;6.90;;
11185;SDS011;5649;52.422;13.754;2022-12-10T07:18:16;15.30;;;8.37;;
11185;SDS011;5649;52.422;13.754;2022-12-10T07:20:42;18.90;;;7.93;;
11185;SDS011;5649;52.422;13.754;2022-12-10T07:23:08;16.53;;;8.10;;
11185;SDS011;5649;52.422;13.754;2022-12-10T07:25:35;19.20;;;8.90;;
11185;SDS011;5649;52.422;13.754;2022-12-10T07:28:01;14.50;;;7.67;;
11185;SDS011;5649;52.422;13.754;2022-12-10T07:30:27;21.17;;;10.07;;
11185;SDS011;5649;52.422;13.754;2022-12-10T07:32:53;34.53;;;11.93;;
11185;SDS011;5649;52.422;13.754;2022-12-10T07:35:19;19.13;;;9.17;;
11185;SDS011;5649;52.422;13.754;2022-12-10T07:37:45;22.03;;;10.50;;
11185;SDS011;5649;52.422;13.754;2022-12-10T07:40:11;19.10;;;10.60;;
11185;SDS011;5649;52.422;13.754;2022-12-10T07:42:37;18.53;;;8.70;;
11185;SDS011;5649;52.422;13.754;2022-12-10T07:45:03;25.00;;;9.50;;
11185;SDS011;5649;52.422;13.754;2022-12-10T07:47:29;17.87;;;8.87;;
11185;SDS011;5649;52.422;13.754;2022-12-10T07:49:55;19.30;;;7.93;;
11185;SDS011;5649;52.422;13.754;2022-12-10T07:52:21;15.30;;;8.40;;
11185;SDS011;5649;52.422;13.754;2022-12-10T07:54:47;19.73;;;7.93;;
11185;SDS011;5649;52.422;13.754;2022-12-10T07:57:13;13.90;;;6.20;;
11185;SDS011;5649;52.422;13.754;2022-12-10T07:59:40;11.00;;;6.17;;
11185;SDS011;5649;52.422;13.754;2022-12-10T08:02:07;12.10;;;5.90;;
11185;SDS011;5649;52.422;13.754;2022-12-10T08:04:33;13.77;;;7.37;;
11185;SDS011;5649;52.422;13.754;2022-12-10T08:06:59;12.57;;;6.83;;
11185;SDS011;5649;52.422;13.754;2022-12-10T08:09:25;11.87;;;6.13;;
11185;SDS011;5649;52.422;13.754;2022-12-10T08:11:52;10.87;;;6.00;;
11185;SDS011;5649;52.422;13.754;2022-12-10T08:14:18;11.30;;;5.90;;
11185;SDS011;5649;52.422;13.754;2022-12-10T08:16:44;10.63;;;6.40;;
11185;SDS011;5649;52.422;13.754;2022-12-10T08:19:10;10.67;;;5.60;;
11185;SDS011;5649;52.422;13.754;2022-12-10T08:21:36;12.73;;;6.77;;
11185;SDS011;5649;52.422;13.754;2022-12-10T08:24:02;14.33;;;7.90;;
11185;SDS011;5649;52.422;13.754;2022-12-10T08:26:30;19.77;;;7.30;;
11185;SDS011;5649;52.422;13.754;2022-12-10T08:28:56;18.83;;;7.30;;
11185;SDS011;5649;52.422;13.754;2022-12-10T08:31:23;14.20;;;7.50;;
11185;SDS011;5649;52.422;13.754;2022-12-10T08:33:49;10.73;;;6.43;;
11185;SDS011;5649;52.422;13.754;2022-12-10T08:36:15;13.10;;;6.97;;
11185;SDS011;5649;52.422;13.754;2022-12-10T08:38:42;13.33;;;7.37;;
11185;SDS011;5649;52.422;13.754;2022-12-10T08:41:12;18.13;;;7.70;;
11185;SDS011;5649;52.422;13.754;2022-12-10T08:43:39;15.27;;;7.70;;
11185;SDS011;5649;52.422;13.754;2022-12-10T08:46:05;22.03;;;7.60;;
11185;SDS011;5649;52.422;13.754;2022-12-10T08:48:31;19.23;;;7.40;;
11185;SDS011;5649;52.422;13.754;2022-12-10T08:50:57;13.10;;;7.80;;
11185;SDS011;5649;52.422;13.754;2022-12-10T08:53:26;9.93;;;5.80;;
11185;SDS011;5649;52.422;13.754;2022-12-10T08:55:52;20.13;;;6.73;;
11185;SDS011;5649;52.422;13.754;2022-12-10T08:58:19;18.33;;;7.23;;
11185;SDS011;5649;52.422;13.754;2022-12-10T09:00:45;14.43;;;5.87;;
11185;SDS011;5649;52.422;13.754;2022-12-10T09:03:11;15.23;;;6.67;;
11185;SDS011;5649;52.422;13.754;2022-12-10T09:05:37;10.97;;;6.73;;
11185;SDS011;5649;52.422;13.754;2022-12-10T09:08:04;21.80;;;6.70;;
11185;SDS011;5649;52.422;13.754;2022-12-10T09:10:30;9.43;;;6.47;;
11185;SDS011;5649;52.422;13.754;2022-12-10T09:12:56;12.73;;;6.43;;
11185;SDS011;5649;52.422;13.754;2022-12-10T09:15:22;15.80;;;6.10;;
11185;SDS011;5649;52.422;13.754;2022-12-10T09:17:48;7.20;;;5.40;;
11185;SDS011;5649;52.422;13.754;2022-12-10T09:20:14;9.00;;;5.80;;
11185;SDS011;5649;52.422;13.754;2022-12-10T09:22:40;9.70;;;5.07;;
11185;SDS011;5649;52.422;13.754;2022-12-10T09:25:07;8.80;;;5.30;;
11185;SDS011;5649;52.422;13.754;2022-12-10T09:27:34;11.40;;;6.43;;
11185;SDS011;5649;52.422;13.754;2022-12-10T09:30:02;9.37;;;5.40;;
11185;SDS011;5649;52.422;13.754;2022-12-10T09:32:28;12.33;;;5.87;;
11185;SDS011;5649;52.422;13.754;2022-12-10T09:34:54;8.13;;;5.20;;
11185;SDS011;5649;52.422;13.754;2022-12-10T09:37:20;8.70;;;5.27;;
11185;SDS011;5649;52.422;13.754;2022-12-10T09:39:47;18.33;;;8.17;;
11185;SDS011;5649;52.422;13.754;2022-12-10T09:47:31;8.13;;;5.47;;
11185;SDS011;5649;52.422;13.754;2022-12-10T09:50:02;13.13;;;5.57;;
11185;SDS011;5649;52.422;13.754;2022-12-10T09:52:34;16.67;;;7.23;;
11185;SDS011;5649;52.422;13.754;2022-12-10T09:55:02;17.07;;;6.83;;
11185;SDS011;5649;52.422;13.754;2022-12-10T09:57:39;11.93;;;6.97;;
11185;SDS011;5649;52.422;13.754;2022-12-10T10:02:49;7.87;;;4.90;;
11185;SDS011;5649;52.422;13.754;2022-12-10T10:05:22;16.33;;;6.37;;
11185;SDS011;5649;52.422;13.754;2022-12-10T10:08:00;10.80;;;6.67;;
11185;SDS011;5649;52.422;13.754;2022-12-10T10:10:27;18.37;;;5.40;;
11185;SDS011;5649;52.422;13.754;2022-12-10T10:12:55;14.93;;;5.53;;
11185;SDS011;5649;52.422;13.754;2022-12-10T10:15:29;9.30;;;6.00;;
11185;SDS011;5649;52.422;13.754;2022-12-10T10:17:56;10.83;;;5.13;;
11185;SDS011;5649;52.422;13.754;2022-12-10T10:20:24;10.30;;;6.17;;
11185;SDS011;5649;52.422;13.754;2022-12-10T10:22:50;18.63;;;6.80;;
11185;SDS011;5649;52.422;13.754;2022-12-10T10:25:17;9.03;;;6.20;;
11185;SDS011;5649;52.422;13.754;2022-12-10T10:27:46;9.40;;;6.13;;
11185;SDS011;5649;52.422;13.754;2022-12-10T10:30:16;14.80;;;6.70;;
11185;SDS011;5649;52.422;13.754;2022-12-10T10:32:44;6.53;;;5.03;;
11185;SDS011;5649;52.422;13.754;2022-12-10T10:35:20;11.40;;;6.60;;
11185;SDS011;5649;52.422;13.754;2022-12-10T10:37:47;10.90;;;5.60;;
11185;SDS011;5649;52.422;13.754;2022-12-10T10:40:23;11.90;;;5.60;;
11185;SDS011;5649;52.422;13.754;2022-12-10T10:42:51;19.13;;;6.90;;
11185;SDS011;5649;52.422;13.754;2022-12-10T10:48:04;10.17;;;6.43;;
11185;SDS011;5649;52.422;13.754;2022-12-10T10:50:32;11.90;;;6.57;;
11185;SDS011;5649;52.422;13.754;2022-12-10T10:53:01;13.03;;;7.13;;
11185;SDS011;5649;52.422;13.754;2022-12-10T10:55:31;8.90;;;5.90;;
11185;SDS011;5649;52.422;13.754;2022-12-10T10:58:00;8.83;;;5.83;;
11185;SDS011;5649;52.422;13.754;2022-12-10T11:00:26;26.00;;;6.10;;
11185;SDS011;5649;52.422;13.754;2022-12-10T11:02:52;13.47;;;5.90;;
11185;SDS011;5649;52.422;13.754;2022-12-10T11:05:23;10.07;;;5.97;;
11185;SDS011;5649;52.422;13.754;2022-12-10T11:10:28;10.37;;;6.30;;
11185;SDS011;5649;52.422;13.754;2022-12-10T11:13:04;11.47;;;6.10;;
11185;SDS011;5649;52.422;13.754;2022-12-10T11:15:35;10.07;;;5.90;;
11185;SDS011;5649;52.422;13.754;2022-12-10T11:18:23;7.87;;;6.23;;
11185;SDS011;5649;52.422;13.754;2022-12-10T11:21:18;17.27;;;6.70;;
11185;SDS011;5649;52.422;13.754;2022-12-10T11:23:43;12.57;;;6.80;;
11185;SDS011;5649;52.422;13.754;2022-12-10T11:33:44;15.87;;;6.80;;
11185;SDS011;5649;52.422;13.754;2022-12-10T11:36:32;9.10;;;6.43;;
11185;SDS011;5649;52.422;13.754;2022-12-10T11:41:41;19.87;;;6.93;;
11185;SDS011;5649;52.422;13.754;2022-12-10T11:44:53;13.83;;;6.93;;
11185;SDS011;5649;52.422;13.754;2022-12-10T11:47:02;11.33;;;6.20;;
11185;SDS011;5649;52.422;13.754;2022-12-10T11:49:42;10.47;;;5.53;;
11185;SDS011;5649;52.422;13.754;2022-12-10T11:52:23;10.47;;;6.67;;
11185;SDS011;5649;52.422;13.754;2022-12-10T11:55:02;11.97;;;5.93;;
11185;SDS011;5649;52.422;13.754;2022-12-10T11:57:45;14.73;;;6.73;;
11185;SDS011;5649;52.422;13.754;2022-12-10T12:08:14;9.67;;;5.50;;
11185;SDS011;5649;52.422;13.754;2022-12-10T12:13:27;10.97;;;6.80;;
11185;SDS011;5649;52.422;13.754;2022-12-10T12:18:41;14.43;;;7.30;;
11185;SDS011;5649;52.422;13.754;2022-12-10T12:21:09;10.40;;;6.60;;
11185;SDS011;5649;52.422;13.754;2022-12-10T12:28:51;14.20;;;7.10;;
11185;SDS011;5649;52.422;13.754;2022-12-10T12:31:21;10.57;;;5.90;;
11185;SDS011;5649;52.422;13.754;2022-12-10T12:33:53;13.10;;;6.73;;
11185;SDS011;5649;52.422;13.754;2022-12-10T12:36:21;13.27;;;6.80;;
11185;SDS011;5649;52.422;13.754;2022-12-10T12:38:56;10.87;;;7.10;;
11185;SDS011;5649;52.422;13.754;2022-12-10T12:46:56;16.77;;;7.63;;
11185;SDS011;5649;52.422;13.754;2022-12-10T12:49:25;13.80;;;7.50;;
11185;SDS011;5649;52.422;13.754;2022-12-10T12:54:34;13.53;;;6.77;;
11185;SDS011;5649;52.422;13.754;2022-12-10T13:04:39;16.90;;;7.30;;
11185;SDS011;5649;52.422;13.754;2022-12-10T13:09:44;13.13;;;7.33;;
11185;SDS011;5649;52.422;13.754;2022-12-10T13:25:37;12.00;;;7.00;;
11185;SDS011;5649;52.422;13.754;2022-12-10T13:28:16;14.30;;;7.73;;
11185;SDS011;5649;52.422;13.754;2022-12-10T13:31:05;11.73;;;6.40;;
11185;SDS011;5649;52.422;13.754;2022-12-10T13:36:13;8.17;;;6.10;;
11185;SDS011;5649;52.422;13.754;2022-12-10T13:38:40;11.10;;;6.80;;
11185;SDS011;5649;52.422;13.754;2022-12-10T13:41:06;13.77;;;6.90;;
11185;SDS011;5649;52.422;13.754;2022-12-10T13:43:52;12.93;;;7.70;;
11185;SDS011;5649;52.422;13.754;2022-12-10T13:47:21;14.60;;;6.87;;
11185;SDS011;5649;52.422;13.754;2022-12-10T13:49:30;14.30;;;6.73;;
11185;SDS011;5649;52.422;13.754;2022-12-10T13:51:59;16.93;;;6.97;;
11185;SDS011;5649;52.422;13.754;2022-12-10T14:02:25;14.70;;;7.70;;
11185;SDS011;5649;52.422;13.754;2022-12-10T14:05:04;12.90;;;7.53;;
11185;SDS011;5649;52.422;13.754;2022-12-10T14:07:33;14.00;;;7.60;;
11185;SDS011;5649;52.422;13.754;2022-12-10T14:10:00;12.50;;;7.13;;
11185;SDS011;5649;52.422;13.754;2022-12-10T14:14:55;16.80;;;6.93;;
11185;SDS011;5649;52.422;13.754;2022-12-10T14:17:24;21.13;;;7.80;;
11185;SDS011;5649;52.422;13.754;2022-12-10T14:19:50;15.33;;;8.37;;
11185;SDS011;5649;52.422;13.754;2022-12-10T14:22:37;12.47;;;8.07;;
11185;SDS011;5649;52.422;13.754;2022-12-10T14:25:05;11.83;;;6.77;;
11185;SDS011;5649;52.422;13.754;2022-12-10T14:27:32;20.67;;;7.30;;
11185;SDS011;5649;52.422;13.754;2022-12-10T14:30:00;11.70;;;6.80;;
11185;SDS011;5649;52.422;13.754;2022-12-10T14:32:34;11.30;;;6.57;;
11185;SDS011;5649;52.422;13.754;2022-12-10T14:35:01;11.93;;;6.20;;
11185;SDS011;5649;52.422;13.754;2022-12-10T14:37:33;19.93;;;7.93;;
11185;SDS011;5649;52.422;13.754;2022-12-10T14:40:04;12.73;;;7.17;;
11185;SDS011;5649;52.422;13.754;2022-12-10T14:42:30;13.57;;;7.53;;
11185;SDS011;5649;52.422;13.754;2022-12-10T14:45:00;12.17;;;6.87;;
11185;SDS011;5649;52.422;13.754;2022-12-10T14:47:31;12.43;;;6.20;;
11185;SDS011;5649;52.422;13.754;2022-12-10T14:49:58;14.57;;;6.93;;
11185;SDS011;5649;52.422;13.754;2022-12-10T14:52:33;19.33;;;7.50;;
11185;SDS011;5649;52.422;13.754;2022-12-10T14:55:04;25.83;;;7.90;;
11185;SDS011;5649;52.422;13.754;2022-12-10T14:57:31;15.07;;;7.23;;
11185;SDS011;5649;52.422;13.754;2022-12-10T15:00:06;26.60;;;8.03;;
11185;SDS011;5649;52.422;13.754;2022-12-10T15:02:33;21.90;;;8.87;;
11185;SDS011;5649;52.422;13.754;2022-12-10T15:05:00;14.13;;;8.13;;
11185;SDS011;5649;52.422;13.754;2022-12-10T15:07:30;23.97;;;10.60;;
11185;SDS011;5649;52.422;13.754;2022-12-10T15:09:59;20.73;;;7.63;;
11185;SDS011;5649;52.422;13.754;2022-12-10T15:15:02;18.13;;;8.10;;
11185;SDS011;5649;52.422;13.754;2022-12-10T15:17:37;18.23;;;7.63;;
11185;SDS011;5649;52.422;13.754;2022-12-10T15:25:44;22.70;;;9.70;;
11185;SDS011;5649;52.422;13.754;2022-12-10T15:28:20;16.10;;;7.40;;
11185;SDS011;5649;52.422;13.754;2022-12-10T15:30:46;19.10;;;8.37;;
11185;SDS011;5649;52.422;13.754;2022-12-10T15:33:36;25.40;;;9.73;;
11185;SDS011;5649;52.422;13.754;2022-12-10T15:36:03;22.03;;;8.37;;
11185;SDS011;5649;52.422;13.754;2022-12-10T15:38:30;21.07;;;9.77;;
11185;SDS011;5649;52.422;13.754;2022-12-10T15:41:10;23.33;;;9.30;;
11185;SDS011;5649;52.422;13.754;2022-12-10T15:43:51;18.80;;;9.27;;
11185;SDS011;5649;52.422;13.754;2022-12-10T15:46:17;30.77;;;8.07;;
11185;SDS011;5649;52.422;13.754;2022-12-10T15:48:43;23.97;;;8.83;;
11185;SDS011;5649;52.422;13.754;2022-12-10T15:51:09;19.23;;;9.03;;
11185;SDS011;5649;52.422;13.754;2022-12-10T15:53:36;18.03;;;7.40;;
11185;SDS011;5649;52.422;13.754;2022-12-10T15:56:03;15.93;;;7.70;;
11185;SDS011;5649;52.422;13.754;2022-12-10T15:58:29;18.17;;;8.23;;
11185;SDS011;5649;52.422;13.754;2022-12-10T16:00:55;28.80;;;10.10;;
11185;SDS011;5649;52.422;13.754;2022-12-10T16:03:21;22.93;;;10.83;;
11185;SDS011;5649;52.422;13.754;2022-12-10T16:05:49;28.00;;;15.30;;
11185;SDS011;5649;52.422;13.754;2022-12-10T16:08:17;26.77;;;11.73;;
11185;SDS011;5649;52.422;13.754;2022-12-10T16:10:44;17.90;;;8.97;;
11185;SDS011;5649;52.422;13.754;2022-12-10T16:13:16;29.73;;;8.53;;
11185;SDS011;5649;52.422;13.754;2022-12-10T16:15:48;24.50;;;10.50;;
11185;SDS011;5649;52.422;13.754;2022-12-10T16:18:16;18.20;;;8.67;;
11185;SDS011;5649;52.422;13.754;2022-12-10T16:20:42;34.20;;;8.93;;
11185;SDS011;5649;52.422;13.754;2022-12-10T16:23:08;30.40;;;11.10;;
11185;SDS011;5649;52.422;13.754;2022-12-10T16:25:34;34.07;;;9.40;;
11185;SDS011;5649;52.422;13.754;2022-12-10T16:28:01;19.93;;;9.00;;
11185;SDS011;5649;52.422;13.754;2022-12-10T16:30:35;29.03;;;10.00;;
11185;SDS011;5649;52.422;13.754;2022-12-10T16:33:02;22.33;;;10.20;;
11185;SDS011;5649;52.422;13.754;2022-12-10T16:35:29;25.27;;;8.90;;
11185;SDS011;5649;52.422;13.754;2022-12-10T16:37:55;23.30;;;11.20;;
11185;SDS011;5649;52.422;13.754;2022-12-10T16:40:24;28.03;;;11.20;;